• Join FlightAware (Why Join?)
  • Login
  • US Flag 
07:22AM EDT


 

Airport Tracker/Info


-or-


 

Live Flight TrackerFlight Track Log ✈ N677F ✈ 25-Jul-2013 ✈ KBJC - KBJC

Flight Track Log - Related Links

Times and Time Zones

All times are in EDT time to prevent confusion due to time zone crossing. See the N677F flight status page for this flight to view local times or setup timezone preferences in your user account.

Time Position Orientation Groundspeed Altitude Reporting Facility
EDT Latitude Longitude Course Direction KTS MPH feet Rate Location/Type
01:14AM 39.9333 -105.1500 360° North 179 206 6,700  Level Denver TRACON
01:15AM 39.9833 -105.1500 360° North 229 264 8,800 2,220 Climbing Denver TRACON
01:16AM 40.0333 -105.1428 North 245 282 10,400 1,680 Climbing Denver Center
01:17AM 40.0600 -105.0447 70° East 340 391 11,700 2,040 Climbing Denver Center
01:18AM 39.9622 -104.9894 157° South 375 432 14,600 2,460 Climbing Denver Center
01:19AM 39.8569 -104.9631 169° South 388 447 16,700 1,860 Climbing Denver Center
01:20AM 39.7478 -104.9322 168° South 403 464 18,500 1,860 Climbing Denver Center
01:21AM 39.6308 -104.9011 168° South 428 493 20,500 1,920 Climbing Denver Center
01:22AM 39.5122 -104.8683 168° South 438 504 22,400 1,980 Climbing Denver Center
01:23AM 39.3867 -104.8333 168° South 446 513 24,500 1,680 Climbing Denver Center
01:24AM 39.2892 -104.8056 168° South 454 522 25,800 1,440 Climbing Denver Center
01:25AM 39.1367 -104.7617 167° South 460 529 27,500 1,560 Climbing Denver Center
01:26AM 39.0031 -104.7206 167° South 484 557 29,000 1,260 Climbing Denver Center
01:27AM 38.8700 -104.6669 163° South 496 571 30,100 1,080 Climbing Denver Center
01:28AM 38.7358 -104.6103 162° South 504 580 31,300 1,080 Climbing Denver Center
01:29AM 38.5964 -104.5519 162° South 523 602 32,300 1,200 Climbing Denver Center
01:30AM 38.4572 -104.4942 162° South 526 605 33,800 1,680 Climbing Denver Center
01:31AM 38.3100 -104.4333 162° South 518 596 35,800 1,800 Climbing Denver Center
01:32AM 38.1908 -104.3456 150° Southeast 516 594 37,500 1,620 Climbing Denver Center
01:33AM 38.0567 -104.2356 147° Southeast 513 590 39,100 1,260 Climbing Denver Center
01:34AM 37.9422 -104.1444 148° Southeast 508 585 40,100 780 Climbing Denver Center
01:35AM 37.8286 -104.0522 147° Southeast 505 581 40,700 420 Climbing Denver Center
01:36AM 37.6944 -103.9433 147° Southeast 508 585 41,000 120 Climbing Denver Center
01:37AM 37.5758 -103.8464 147° Southeast 515 593 41,000  Level Denver Center
01:38AM 37.4567 -103.7550 149° Southeast 516 594 41,000  Level Denver Center
01:39AM 37.3417 -103.6647 148° Southeast 510 587 41,000  Level Denver Center
01:40AM 37.2286 -103.5717 147° Southeast 507 583 41,000  Level Albuquerque Center
01:41AM 37.1200 -103.4667 142° Southeast 511 588 41,000  Level Albuquerque Center
01:42AM 37.0106 -103.3611 142° Southeast 517 595 41,000  Level Albuquerque Center
01:43AM 36.8844 -103.2394 142° Southeast 512 589 41,000  Level Albuquerque Center
01:44AM 36.7761 -103.1356 142° Southeast 512 589 41,000  Level Albuquerque Center
01:45AM 36.6661 -103.0314 143° Southeast 517 595 41,000  Level Albuquerque Center
01:46AM 36.5475 -102.9175 142° Southeast 508 585 41,000  Level Albuquerque Center
01:47AM 36.4392 -102.8144 143° Southeast 510 587 41,000  Level Albuquerque Center
01:48AM 36.3250 -102.7081 143° Southeast 513 590 41,000  Level Albuquerque Center
01:49AM 36.2139 -102.6019 142° Southeast 508 585 41,000  Level Albuquerque Center
01:50AM 36.1036 -102.5003 143° Southeast 499 574 41,000  Level Albuquerque Center
01:51AM 35.9931 -102.3914 141° Southeast 503 579 41,000  Level Albuquerque Center
01:52AM 35.8814 -102.2844 142° Southeast 509 586 41,000  Level Albuquerque Center
01:53AM 35.7697 -102.1789 143° Southeast 507 583 41,000  Level Albuquerque Center
01:54AM 35.6583 -102.0714 142° Southeast 508 585 41,000  Level Albuquerque Center
01:55AM 35.5450 -101.9644 142° Southeast 513 590 41,000  Level Albuquerque Center
01:56AM 35.4153 -101.8417 142° Southeast 512 589 41,000  Level Albuquerque Center
01:57AM 35.3033 -101.7347 142° Southeast 509 586 41,000  Level Albuquerque Center
01:58AM 35.2047 -101.6444 143° Southeast 509 586 41,000  Level Albuquerque Center
01:59AM 35.0722 -101.5200 142° Southeast 502 578 41,000  Level Albuquerque Center
02:00AM 34.9619 -101.4172 143° Southeast 501 577 41,000  Level Albuquerque Center
02:01AM 34.8628 -101.3267 143° Southeast 504 580 41,000  Level Albuquerque Center
02:02AM 34.7531 -101.2231 142° Southeast 503 579 41,000  Level Albuquerque Center
02:03AM 34.6442 -101.1222 143° Southeast 495 570 41,000  Level Albuquerque Center
02:05AM 34.6803 -100.9122 74° East  Level FlightAware Approximate
02:12AM 34.8933 -99.9225 76° East  Level FlightAware Approximate
02:13AM 34.9217 -99.7803 76° East  Level FlightAware Approximate
02:14AM 34.9500 -99.6379 76° East  Level FlightAware Approximate
02:14AM 33.7300 -99.7942 76° East 477 549 41,000  Level Fort Worth Center
02:15AM 34.9780 -99.4955 76° East  Level FlightAware Approximate
02:15AM 33.7172 -99.6336 95° East 479 551 41,000  Level Fort Worth Center
02:16AM 35.0062 -99.3530 76° East  Level FlightAware Approximate
02:16AM 33.7022 -99.4725 96° East 482 555 41,000  Level Fort Worth Center
02:17AM 35.0351 -99.2107 76° East  Level FlightAware Approximate
02:17AM 33.6881 -99.3156 96° East 473 544 41,000  Level Fort Worth Center
02:18AM 35.0639 -99.0684 76° East  Level FlightAware Approximate
02:18AM 33.6719 -99.1578 97° East 476 548 41,000  Level Fort Worth Center
02:19AM 35.0926 -98.9259 76° East  Level FlightAware Approximate
02:19AM 33.6556 -98.9969 97° East 484 557 41,000  Level Fort Worth Center
02:20AM 33.6403 -98.8367 96° East 484 557 41,000  Level Fort Worth Center
02:21AM 33.6250 -98.6892 97° East 476 548 41,000  Level Fort Worth Center
02:22AM 33.6092 -98.5303 97° East 481 554 41,000  Level Fort Worth Center
02:23AM 33.5936 -98.3692 97° East 486 559 41,000  Level Fort Worth Center
02:24AM 33.5772 -98.2089 97° East 486 559 41,000  Level Fort Worth Center
02:25AM 33.5614 -98.0492 97° East 484 557 41,000  Level Fort Worth Center
02:26AM 33.5731 -97.8928 85° East 476 548 41,000  Level Fort Worth Center
02:27AM 33.6414 -97.7633 58° Northeast 468 539 41,000  Level Fort Worth Center
02:28AM 33.7450 -97.6836 33° Northeast 457 526 41,000  Level Fort Worth Center
02:29AM 33.8503 -97.6133 29° Northeast 440 506 41,000  Level Fort Worth Center
02:30AM 33.9533 -97.5433 29° Northeast 425 489 41,000  Level Fort Worth Center
02:31AM 34.0567 -97.4761 28° Northeast 423 487 41,000  Level Fort Worth Center
02:32AM 34.1719 -97.3964 30° Northeast 433 498 41,000 360 Level Fort Worth Center
02:33AM 34.2756 -97.3261 29° Northeast 429 494 41,800 480 Climbing Fort Worth Center
02:34AM 34.3786 -97.2586 28° Northeast 423 487 42,000 60 Climbing Fort Worth Center
02:35AM 34.4800 -97.1933 28° Northeast 415 478 42,000  Level Fort Worth Center
02:36AM 34.5828 -97.1200 30° Northeast 427 491 42,000  Level Fort Worth Center
02:37AM 34.6872 -97.0514 28° Northeast 428 493 42,000  Level Fort Worth Center
02:38AM 34.7947 -96.9778 29° Northeast 441 507 42,000  Level Fort Worth Center
02:39AM 34.8878 -96.8733 43° Northeast 464 534 42,000  Level Fort Worth Center
02:40AM 34.9642 -96.7389 55° Northeast 483 556 42,000  Level Fort Worth Center
02:41AM 35.0406 -96.6081 54° Northeast 479 551 42,000  Level Fort Worth Center
02:42AM 35.1419 -96.5239 34° Northeast 444 511 42,000  Level Fort Worth Center
02:43AM 35.2517 -96.4567 27° Northeast 442 509 42,000  Level Fort Worth Center
02:44AM 35.3622 -96.3878 27° Northeast 446 513 42,000  Level Fort Worth Center
02:45AM 35.4725 -96.3181 27° Northeast 450 518 42,000  Level Fort Worth Center
02:46AM 35.5842 -96.2489 27° Northeast 451 519 42,000  Level Fort Worth Center
02:47AM 35.7133 -96.1700 26° Northeast 455 524 42,000  Level Fort Worth Center
02:48AM 35.8258 -96.0978 27° Northeast 455 524 42,000  Level Fort Worth Center
02:49AM 35.9367 -96.0267 27° Northeast 449 517 42,000  Level Fort Worth Center
02:50AM 36.0483 -95.9564 27° Northeast 448 516 42,000  Level Fort Worth Center
02:51AM 36.1594 -95.8856 27° Northeast 447 514 42,000  Level Fort Worth Center
02:52AM 36.2483 -95.8292 27° Northeast 445 512 42,000  Level Fort Worth Center
02:53AM 36.3600 -95.7578 27° Northeast 445 512 42,000  Level Fort Worth Center
02:54AM 36.4925 -95.6722 27° Northeast 451 519 42,000  Level Kansas City Center
02:55AM 36.6119 -95.5969 27° Northeast 455 524 42,000  Level Kansas City Center
02:56AM 36.7242 -95.5219 28° Northeast 454 522 42,000  Level Kansas City Center
02:57AM 36.8347 -95.4497 28° Northeast 448 516 42,000  Level Kansas City Center
02:58AM 36.9439 -95.3767 28° Northeast 443 510 42,000  Level Kansas City Center
02:59AM 37.0572 -95.3028 27° Northeast 452 520 42,000  Level Kansas City Center
03:00AM 37.1697 -95.2275 28° Northeast 457 526 42,000  Level Kansas City Center
03:01AM 37.2808 -95.1533 28° Northeast 453 521 42,000  Level Kansas City Center
03:02AM 37.3917 -95.0811 27° Northeast 449 517 42,000  Level Kansas City Center
03:03AM 37.5053 -95.0042 28° Northeast 458 527 42,000  Level Kansas City Center
03:04AM 37.6214 -94.9281 27° Northeast 465 535 42,000  Level Kansas City Center
03:05AM 37.7353 -94.8514 28° Northeast 466 536 42,000  Level Kansas City Center
03:06AM 37.8447 -94.7756 29° Northeast 468 539 42,000  Level Kansas City Center
03:07AM 37.9522 -94.7039 28° Northeast 461 531 42,000  Level Kansas City Center
03:08AM 38.0800 -94.6264 26° Northeast 458 527 42,000  Level Kansas City Center
03:09AM 38.1922 -94.5781 19° North 446 513 42,000  Level Kansas City Center
03:10AM 38.3067 -94.5747 North 441 507 42,000  Level Kansas City Center
03:11AM 38.4064 -94.6369 334° Northwest 415 478 42,000  Level Kansas City Center
03:12AM 38.5206 -94.7092 334° Northwest 410 472 42,000  Level Kansas City Center
03:13AM 38.6172 -94.7697 334° Northwest 404 465 42,000  Level Kansas City Center
03:14AM 38.7078 -94.8422 328° Northwest 400 460 42,000  Level Kansas City Center
03:16AM 38.8055 -94.9838 312° West  Level FlightAware Approximate
03:16AM 38.9011 -95.0036 312° West 399 459 42,000  Level Kansas City Center
03:17AM 38.9900 -95.0783 327° Northwest 399 459 42,000  Level Kansas City Center
03:18AM 39.0903 -95.1625 327° Northwest 398 458 42,000  Level Kansas City Center
03:19AM 39.1836 -95.2411 327° Northwest 400 460 42,000  Level Kansas City Center
03:20AM 39.2764 -95.3192 327° Northwest 399 459 42,000  Level Kansas City Center
03:21AM 39.3722 -95.3981 328° Northwest 405 466 42,000  Level Kansas City Center
03:22AM 39.4553 -95.4794 323° Northwest 403 464 42,000  Level Kansas City Center
03:23AM 39.5022 -95.5958 298° West 387 445 42,000  Level Kansas City Center
03:24AM 39.5144 -95.7500 276° West 386 444 42,000  Level Kansas City Center
03:25AM 39.5233 -95.8825 275° West 389 448 42,000  Level Kansas City Center
03:26AM 39.5336 -96.0183 276° West 395 455 42,000  Level Kansas City Center
03:27AM 39.5433 -96.1525 275° West 394 453 42,000  Level Kansas City Center
03:28AM 39.5550 -96.3072 276° West 388 447 42,000  Level Kansas City Center
03:29AM 39.5647 -96.4417 275° West 390 449 42,000  Level Kansas City Center
03:30AM 39.5750 -96.5764 276° West 392 451 42,000  Level Kansas City Center
03:31AM 39.5850 -96.7342 275° West 393 452 42,000  Level Kansas City Center
03:32AM 39.5936 -96.8592 275° West 398 458 42,000  Level Kansas City Center
03:33AM 39.6025 -97.0036 275° West 400 460 42,000  Level Kansas City Center
03:34AM 39.6128 -97.1483 275° West 402 463 42,000  Level Kansas City Center
03:35AM 39.6203 -97.2931 274° West 403 464 42,000  Level Kansas City Center
03:36AM 39.6289 -97.4375 274° West 402 463 42,000  Level Kansas City Center
03:37AM 39.6375 -97.5797 275° West 397 457 42,000  Level Kansas City Center
03:38AM 39.6453 -97.6636 277° West 397 457 42,000  Level Minneapolis Center
03:40AM 39.6656 -98.0075 274° West 399 459 42,000  Level Minneapolis Center
03:41AM 39.6739 -98.1503 274° West 398 458 42,000  Level Minneapolis Center
03:42AM 39.6817 -98.2972 274° West 403 464 42,000  Level Minneapolis Center
03:43AM 39.6894 -98.4456 274° West 408 470 42,000  Level Minneapolis Center
03:44AM 39.6983 -98.5936 275° West 410 472 42,000  Level Minneapolis Center
03:45AM 39.7058 -98.7431 274° West 411 473 42,000  Level Minneapolis Center
03:46AM 39.7136 -98.8917 274° West 413 475 42,000  Level Minneapolis Center
03:47AM 39.7211 -99.0422 274° West 414 476 42,000  Level Minneapolis Center
03:49AM 39.7292 -99.2217 273° West 416 479 42,000  Level Denver Center
03:50AM 39.7361 -99.3728 273° West 418 481 42,000  Level Denver Center
03:51AM 39.7450 -99.5519 274° West 415 478 42,000  Level Denver Center
03:52AM 39.7508 -99.7033 273° West 418 481 42,000  Level Denver Center
03:53AM 39.7583 -99.8544 274° West 418 481 42,000  Level Denver Center
03:54AM 39.7639 -100.0039 273° West 416 479 42,000  Level Denver Center
03:55AM 39.7703 -100.1492 273° West 418 481 42,000  Level Denver Center
03:56AM 39.7764 -100.3178 273° West 418 481 42,000  Level Denver Center
03:57AM 39.7822 -100.4617 273° West 416 479 42,000  Level Denver Center
03:58AM 39.7869 -100.6083 272° West 421 484 42,000  Level Denver Center
03:59AM 39.7925 -100.7528 273° West 418 481 42,000  Level Denver Center
04:00AM 39.7978 -100.9186 272° West 412 474 42,000  Level Denver Center
04:01AM 39.8031 -101.0858 272° West 414 476 42,000  Level Denver Center
04:02AM 39.8083 -101.2547 272° West 417 480 42,000  Level Denver Center
04:03AM 39.8128 -101.3964 272° West 410 472 42,000  Level Denver Center
04:04AM 39.8169 -101.5394 272° West 412 474 42,000  Level Denver Center
04:05AM 39.8206 -101.6844 272° West 417 480 42,000 -120 Level Denver Center
04:06AM 39.8247 -101.8544 272° West 421 484 41,800 -840 Descending Denver Center
04:07AM 39.8286 -101.9972 272° West 414 476 40,400 -1,440 Descending Denver Center
04:08AM 39.8314 -102.1408 271° West 414 476 38,900 -1,620 Descending Denver Center
04:09AM 39.8350 -102.3050 272° West 408 470 37,200 -1,620 Descending Denver Center
04:10AM 39.8386 -102.4417 272° West 397 457 35,700 -1,620 Descending Denver Center
04:11AM 39.8403 -102.5806 271° West 400 460 34,000 -1,800 Descending Denver Center
04:12AM 39.8442 -102.7228 272° West 414 476 32,100 -1,980 Descending Denver Center
04:13AM 39.8444 -102.8758 270° West 424 488 30,100 -2,220 Descending Denver Center
04:14AM 39.8481 -103.0656 271° West 438 504 27,700 -2,220 Descending Denver Center
04:15AM 39.8494 -103.2183 271° West 426 490 25,700 -2,040 Descending Denver Center
04:16AM 39.8525 -103.3681 272° West 416 479 23,700 -1,860 Descending Denver Center
04:17AM 39.8536 -103.5117 271° West 402 463 22,000 -1,740 Descending Denver Center
04:18AM 39.8547 -103.6503 271° West 389 448 20,200 -1,800 Descending Denver Center
04:19AM 39.8569 -103.7869 271° West 393 452 18,400 -1,620 Descending Denver Center
04:20AM 39.8575 -103.9200 270° West 370 426 17,000 -1,680 Descending Denver Center
04:21AM 39.8583 -104.0536 271° West 368 423 15,100 -1,980 Descending Denver Center
04:22AM 39.8594 -104.1953 271° West 366 421 13,100 -1,980 Descending Denver Center
04:23AM 39.8597 -104.3233 270° West 356 410 11,200 -1,020 Descending Denver Center
04:24AM 39.8600 -104.4147 270° West 332 382 11,100 -60 Descending Denver Center
04:25AM 39.8606 -104.5594 270° West 326 375 11,100 -420 Level Denver Center
04:26AM 39.8608 -104.6708 270° West 312 359 10,300 -1,140 Descending Denver Center
04:27AM 39.8606 -104.7800 270° West 289 333 8,900 -1,140 Descending Denver Center
04:28AM 39.8606 -104.8706 270° West 281 323 8,100 -840 Descending Denver Center